Terminal Aerodrome Forecast
Issued by NWS Pueblo, CO

Home | Current Version | Previous Version | Text Only | Print | Product List | Glossary On
Versions: 1 2 3 4 5 6 7 8 9 10 11 12 13 14 15 16
000
FTUS45 KPUB 141432 AAC
TAFPUB
TAF AMD
KPUB 141432Z 1415/1512 VRB05KT P6SM VCSH FEW004 SCT025 BKN050
     FM141700 35012KT P6SM SCT050 BKN100
     FM142300 33006KT P6SM SCT100 SCT200
     FM150600 VRB06KT P6SM FEW200=

USA.gov is the U.S. government's official web portal to all federal, state and local government web resources and services.